• Join FlightAware (Why Join?)
  • Login
  • US Flag 
02:15PM EDT


 

Airport Tracker/Info


-or-


 

Live Flight TrackerFlight Track Log ✈ ADR705 ✈ 19-Aug-2014 ✈ LATI / TIA - LJLJ / LJU

Flight Track Log - Related Links

Times and Time Zones

All times are in EDT time to prevent confusion due to time zone crossing. See the ADR705 flight status page for this flight to view local times or setup timezone preferences in your user account.

Time Position Orientation Groundspeed Altitude Reporting Facility
EDT Latitude Longitude Course Direction KTS MPH feet Rate Location/Type
09:58AM 42.4849 18.6418 324° Northwest  Level Estimated
09:59AM 42.5736 18.5503 323° Northwest  Level Estimated
10:00AM 42.6623 18.4585 323° Northwest  Level Estimated
10:01AM 42.7508 18.3664 323° Northwest  Level Estimated
10:02AM 42.8393 18.2740 323° Northwest  Level Estimated
10:03AM 42.9277 18.1814 323° Northwest  Level Estimated
10:04AM 43.0161 18.0886 322° Northwest  Level Estimated
10:05AM 43.1044 17.9954 322° Northwest  Level Estimated
10:06AM 43.1926 17.9020 322° Northwest  Level Estimated
10:07AM 43.2807 17.8084 322° Northwest  Level Estimated
10:08AM 43.3687 17.7144 322° Northwest  Level Estimated
10:09AM 43.4567 17.6202 322° Northwest  Level Estimated
10:10AM 43.5446 17.5257 322° Northwest  Level Estimated
10:11AM 43.6324 17.4309 322° Northwest  Level Estimated
10:12AM 43.7201 17.3359 322° Northwest  Level Estimated
10:13AM 43.8078 17.2406 322° Northwest  Level Estimated
10:14AM 43.8953 17.1450 322° Northwest  Level Estimated
10:15AM 43.9828 17.0491 322° Northwest  Level Estimated
10:16AM 44.0702 16.9529 322° Northwest  Level Estimated
10:17AM 44.1576 16.8565 322° Northwest  Level Estimated
10:18AM 44.2448 16.7597 322° Northwest  Level Estimated
10:19AM 44.3320 16.6627 321° Northwest  Level Estimated
10:20AM 44.4191 16.5654 321° Northwest  Level Estimated
10:21AM 44.5061 16.4678 321° Northwest  Level Estimated
10:22AM 44.5930 16.3699 321° Northwest  Level Estimated
10:23AM 44.6798 16.2717 321° Northwest  Level Estimated
10:24AM 44.7666 16.1732 321° Northwest  Level Estimated
10:25AM 44.8533 16.0744 321° Northwest  Level Estimated
10:26AM 44.9398 15.9753 321° Northwest  Level Estimated
10:27AM 45.0263 15.8760 321° Northwest  Level Estimated
10:28AM 45.1127 15.7763 321° Northwest  Level Estimated
10:29AM 45.1991 15.6763 321° Northwest  Level Estimated
10:30AM 45.2853 15.5760 321° Northwest  Level Estimated
10:31AM 45.3714 15.4754 321° Northwest  Level Estimated
10:32AM 45.4575 15.3745 321° Northwest  Level Estimated
10:33AM 45.5435 15.2733 321° Northwest  Level Estimated
10:34AM 45.6293 15.1718 320° Northwest  Level Estimated
10:35AM 45.7151 15.0700 320° Northwest  Level Estimated
10:36AM 45.8008 14.9678 320° Northwest  Level Estimated
10:37AM 45.8865 14.8654 320° Northwest  Level Estimated
10:38AM 45.9720 14.7626 320° Northwest  Level Estimated
10:39AM 46.0574 14.6595 320° Northwest  Level Estimated
10:40AM 46.1427 14.5561 320° Northwest  Level Estimated
10:41AM 46.2237 14.4576 320° Northwest  Level Estimated
10:42AM 46.2237 14.4576 North  Level Estimated
10:43AM 46.2237 14.4576 North  Level Estimated
10:44AM 46.2237 14.4576 North  Level Estimated
10:45AM 46.2237 14.4576 North  Level Estimated
10:46AM 46.2237 14.4576 North  Level Estimated
10:47AM 46.2237 14.4576 North  Level Estimated
10:48AM 46.2237 14.4576 North  Level Estimated
10:49AM 46.2237 14.4576 North  Level Estimated
10:50AM 46.2237 14.4576 North  Level Estimated
10:51AM 46.2237 14.4576 North  Level Estimated
10:52AM 46.2237 14.4576 North  Level Estimated
10:53AM 46.2237 14.4576 North  Level Estimated
10:54AM 46.2237 14.4576 North  Level Estimated